Hlavní strana
METAR-TAF:

METAR-TAF

Letiště :

Ivalo, Finsko

zeměpisná šířka: 68-37N, zeměpisná délka: 027-25E, výška: 147 m

Aktuální stav počasí

Zpráva byla vytvořena před 16 minutami, v 20:20 UTC
vítr z různých směrů 1 kt
Teplota -12°C
Vlhkost vzduchu 85%
Tlak 1019 hPa
Viditelnost 10 km a více
Zataženo ve výšce 2100 ft

METAR: EFIV 122020Z AUTO VRB01KT 9999 OVC021 M12/M14 Q1019

Čas: 22:36 (20:36 UTC)

Předpověď počasí

Zpráva byla vytvořena před 6 hodinami a 7 minutami, v 14:29 UTC
Předpověď platná od 12 v 15 UTC do 12 v 18 UTC
Severoseverovýchodní vítr 2 kt
Viditelnost 10 km a více
Zataženo ve výšce 2000 ft

TAF: EFIV 121429Z 1215/1218 03002KT 9999 OVC020

Stav a předpovědi počasí z více než 4 000 letišť (zprávy METAR a TAF).

Červené a žluté tečky na mapě představují dostupné meteorologické stanice.

Když kurzor umístíte na tečku, zobrazí se název stanice.

Pak kliknutím zobrazíte stav a předpověď počasí.

Chcete-li změnit mapu, kliknutím na zelené tlačítko se znaménkem +mapu přiblížíte, kliknutím na zelené tlačítko se znaménkem – mapu oddálíte a kliknutím na zelené šipky přejdete na sousední mapy.


METAR-TAF: